sensor_id;sensor_type;location;lat;lon;timestamp;P1;durP1;ratioP1;P2;durP2;ratioP2
24153;SDS011;12312;53.362;-1.518;2024-03-23T00:55:13;11.25;;;1.58;;
24153;SDS011;12312;53.362;-1.518;2024-03-23T00:57:58;8.35;;;2.20;;
24153;SDS011;12312;53.362;-1.518;2024-03-23T01:00:42;10.85;;;1.85;;
24153;SDS011;12312;53.362;-1.518;2024-03-23T01:03:27;12.40;;;1.88;;
24153;SDS011;12312;53.362;-1.518;2024-03-23T01:06:12;15.68;;;2.53;;
24153;SDS011;12312;53.362;-1.518;2024-03-23T01:08:57;8.43;;;1.80;;
24153;SDS011;12312;53.362;-1.518;2024-03-23T01:11:41;14.77;;;2.90;;
24153;SDS011;12312;53.362;-1.518;2024-03-23T01:14:25;12.32;;;2.58;;
24153;SDS011;12312;53.362;-1.518;2024-03-23T01:17:10;3.28;;;2.05;;
24153;SDS011;12312;53.362;-1.518;2024-03-23T01:19:54;7.30;;;2.50;;
24153;SDS011;12312;53.362;-1.518;2024-03-23T01:22:38;14.98;;;3.13;;
24153;SDS011;12312;53.362;-1.518;2024-03-23T01:25:23;11.02;;;2.85;;
24153;SDS011;12312;53.362;-1.518;2024-03-23T01:28:07;13.30;;;2.20;;
24153;SDS011;12312;53.362;-1.518;2024-03-23T01:30:53;18.05;;;2.67;;
24153;SDS011;12312;53.362;-1.518;2024-03-23T01:33:37;5.90;;;1.90;;
24153;SDS011;12312;53.362;-1.518;2024-03-23T01:36:22;14.90;;;2.10;;
24153;SDS011;12312;53.362;-1.518;2024-03-23T01:39:07;15.13;;;2.55;;
24153;SDS011;12312;53.362;-1.518;2024-03-23T01:41:53;8.02;;;2.60;;
24153;SDS011;12312;53.362;-1.518;2024-03-23T01:44:37;6.97;;;1.52;;
24153;SDS011;12312;53.362;-1.518;2024-03-23T01:47:21;11.68;;;1.98;;
24153;SDS011;12312;53.362;-1.518;2024-03-23T01:50:06;7.20;;;1.70;;
24153;SDS011;12312;53.362;-1.518;2024-03-23T01:52:50;9.68;;;2.22;;
24153;SDS011;12312;53.362;-1.518;2024-03-23T01:55:34;7.63;;;2.13;;
24153;SDS011;12312;53.362;-1.518;2024-03-23T01:58:18;14.30;;;1.63;;
24153;SDS011;12312;53.362;-1.518;2024-03-23T02:01:02;7.88;;;1.63;;
24153;SDS011;12312;53.362;-1.518;2024-03-23T02:03:46;8.98;;;1.52;;
24153;SDS011;12312;53.362;-1.518;2024-03-23T02:06:30;6.63;;;1.70;;
24153;SDS011;12312;53.362;-1.518;2024-03-23T02:09:14;13.07;;;1.73;;
24153;SDS011;12312;53.362;-1.518;2024-03-23T02:11:58;12.82;;;2.42;;
24153;SDS011;12312;53.362;-1.518;2024-03-23T02:14:45;12.43;;;1.55;;
24153;SDS011;12312;53.362;-1.518;2024-03-23T02:17:30;8.05;;;1.15;;
24153;SDS011;12312;53.362;-1.518;2024-03-23T02:20:14;10.13;;;1.58;;
24153;SDS011;12312;53.362;-1.518;2024-03-23T02:22:58;6.93;;;1.48;;
24153;SDS011;12312;53.362;-1.518;2024-03-23T02:25:45;7.53;;;1.70;;
24153;SDS011;12312;53.362;-1.518;2024-03-23T02:28:29;13.93;;;1.40;;
24153;SDS011;12312;53.362;-1.518;2024-03-23T02:31:13;17.33;;;2.15;;
24153;SDS011;12312;53.362;-1.518;2024-03-23T02:33:59;8.65;;;2.33;;
24153;SDS011;12312;53.362;-1.518;2024-03-23T02:36:43;7.45;;;1.88;;
24153;SDS011;12312;53.362;-1.518;2024-03-23T02:39:27;9.48;;;1.58;;
24153;SDS011;12312;53.362;-1.518;2024-03-23T02:42:11;13.27;;;1.88;;
24153;SDS011;12312;53.362;-1.518;2024-03-23T02:44:55;14.02;;;2.13;;
24153;SDS011;12312;53.362;-1.518;2024-03-23T02:47:39;8.30;;;1.50;;
24153;SDS011;12312;53.362;-1.518;2024-03-23T02:50:23;13.45;;;1.88;;
24153;SDS011;12312;53.362;-1.518;2024-03-23T02:53:06;8.60;;;1.63;;
24153;SDS011;12312;53.362;-1.518;2024-03-23T02:55:50;7.10;;;1.88;;
24153;SDS011;12312;53.362;-1.518;2024-03-23T02:58:34;3.70;;;1.35;;
24153;SDS011;12312;53.362;-1.518;2024-03-23T03:01:18;13.63;;;1.70;;
24153;SDS011;12312;53.362;-1.518;2024-03-23T03:04:02;10.52;;;1.70;;
24153;SDS011;12312;53.362;-1.518;2024-03-23T03:06:47;7.47;;;1.60;;
24153;SDS011;12312;53.362;-1.518;2024-03-23T03:09:31;6.40;;;1.42;;
24153;SDS011;12312;53.362;-1.518;2024-03-23T03:12:15;12.73;;;1.63;;
24153;SDS011;12312;53.362;-1.518;2024-03-23T03:14:59;7.68;;;1.48;;
24153;SDS011;12312;53.362;-1.518;2024-03-23T03:17:43;10.88;;;1.85;;
24153;SDS011;12312;53.362;-1.518;2024-03-23T03:20:31;2.97;;;1.70;;
24153;SDS011;12312;53.362;-1.518;2024-03-23T03:23:15;14.98;;;1.88;;
24153;SDS011;12312;53.362;-1.518;2024-03-23T03:25:59;10.82;;;1.23;;
24153;SDS011;12312;53.362;-1.518;2024-03-23T03:28:43;11.85;;;1.40;;
24153;SDS011;12312;53.362;-1.518;2024-03-23T03:31:32;6.20;;;1.55;;
24153;SDS011;12312;53.362;-1.518;2024-03-23T03:34:16;13.23;;;1.67;;
24153;SDS011;12312;53.362;-1.518;2024-03-23T03:37:00;4.43;;;1.45;;
24153;SDS011;12312;53.362;-1.518;2024-03-23T03:39:44;4.38;;;1.20;;
24153;SDS011;12312;53.362;-1.518;2024-03-23T03:42:31;4.78;;;1.08;;
24153;SDS011;12312;53.362;-1.518;2024-03-23T03:45:15;10.57;;;1.30;;
24153;SDS011;12312;53.362;-1.518;2024-03-23T03:47:59;4.30;;;1.00;;
24153;SDS011;12312;53.362;-1.518;2024-03-23T03:50:43;9.75;;;1.55;;
24153;SDS011;12312;53.362;-1.518;2024-03-23T03:53:27;13.18;;;1.65;;
24153;SDS011;12312;53.362;-1.518;2024-03-23T03:56:11;6.00;;;1.75;;
24153;SDS011;12312;53.362;-1.518;2024-03-23T03:58:55;16.95;;;1.77;;
24153;SDS011;12312;53.362;-1.518;2024-03-23T04:01:39;13.65;;;1.77;;
24153;SDS011;12312;53.362;-1.518;2024-03-23T04:04:23;11.77;;;2.03;;
24153;SDS011;12312;53.362;-1.518;2024-03-23T04:07:07;3.67;;;1.40;;
24153;SDS011;12312;53.362;-1.518;2024-03-23T04:09:51;7.38;;;1.60;;
24153;SDS011;12312;53.362;-1.518;2024-03-23T04:12:35;9.93;;;1.60;;
24153;SDS011;12312;53.362;-1.518;2024-03-23T04:15:19;3.35;;;1.17;;
24153;SDS011;12312;53.362;-1.518;2024-03-23T04:18:03;7.95;;;1.60;;
24153;SDS011;12312;53.362;-1.518;2024-03-23T04:20:48;13.10;;;1.73;;
24153;SDS011;12312;53.362;-1.518;2024-03-23T04:23:32;17.33;;;2.17;;
24153;SDS011;12312;53.362;-1.518;2024-03-23T04:26:16;10.38;;;1.58;;
24153;SDS011;12312;53.362;-1.518;2024-03-23T04:29:00;9.52;;;1.95;;
24153;SDS011;12312;53.362;-1.518;2024-03-23T04:31:45;4.28;;;1.60;;
24153;SDS011;12312;53.362;-1.518;2024-03-23T04:34:31;7.85;;;1.65;;
24153;SDS011;12312;53.362;-1.518;2024-03-23T04:37:16;10.40;;;1.42;;
24153;SDS011;12312;53.362;-1.518;2024-03-23T04:40:00;7.53;;;2.05;;
24153;SDS011;12312;53.362;-1.518;2024-03-23T04:42:48;8.18;;;1.75;;
24153;SDS011;12312;53.362;-1.518;2024-03-23T04:45:32;15.43;;;1.90;;
24153;SDS011;12312;53.362;-1.518;2024-03-23T04:48:16;4.03;;;1.52;;
24153;SDS011;12312;53.362;-1.518;2024-03-23T04:51:00;4.97;;;2.00;;
24153;SDS011;12312;53.362;-1.518;2024-03-23T04:53:44;8.60;;;1.90;;
24153;SDS011;12312;53.362;-1.518;2024-03-23T04:56:28;6.72;;;2.40;;
24153;SDS011;12312;53.362;-1.518;2024-03-23T04:59:11;8.75;;;1.90;;
24153;SDS011;12312;53.362;-1.518;2024-03-23T05:01:55;8.30;;;1.80;;
24153;SDS011;12312;53.362;-1.518;2024-03-23T05:04:40;3.55;;;1.70;;
24153;SDS011;12312;53.362;-1.518;2024-03-23T05:07:24;6.90;;;1.38;;
24153;SDS011;12312;53.362;-1.518;2024-03-23T05:10:09;8.23;;;1.80;;
24153;SDS011;12312;53.362;-1.518;2024-03-23T05:12:54;7.53;;;2.17;;
24153;SDS011;12312;53.362;-1.518;2024-03-23T05:15:38;12.85;;;1.75;;
24153;SDS011;12312;53.362;-1.518;2024-03-23T05:18:22;8.02;;;1.80;;
24153;SDS011;12312;53.362;-1.518;2024-03-23T05:21:06;8.90;;;2.25;;
24153;SDS011;12312;53.362;-1.518;2024-03-23T05:23:49;15.77;;;2.28;;
24153;SDS011;12312;53.362;-1.518;2024-03-23T05:26:35;7.47;;;1.15;;
24153;SDS011;12312;53.362;-1.518;2024-03-23T05:29:19;11.63;;;1.83;;
24153;SDS011;12312;53.362;-1.518;2024-03-23T05:32:03;5.93;;;1.50;;
24153;SDS011;12312;53.362;-1.518;2024-03-23T05:34:47;5.00;;;1.30;;
24153;SDS011;12312;53.362;-1.518;2024-03-23T05:37:31;7.65;;;2.30;;
24153;SDS011;12312;53.362;-1.518;2024-03-23T05:40:18;12.70;;;1.77;;
24153;SDS011;12312;53.362;-1.518;2024-03-23T05:43:02;4.72;;;1.63;;
24153;SDS011;12312;53.362;-1.518;2024-03-23T05:45:46;7.50;;;1.48;;
24153;SDS011;12312;53.362;-1.518;2024-03-23T05:48:30;6.68;;;1.85;;
24153;SDS011;12312;53.362;-1.518;2024-03-23T05:51:14;5.20;;;1.75;;
24153;SDS011;12312;53.362;-1.518;2024-03-23T05:53:58;7.95;;;1.83;;
24153;SDS011;12312;53.362;-1.518;2024-03-23T05:56:42;6.22;;;1.40;;
24153;SDS011;12312;53.362;-1.518;2024-03-23T05:59:26;3.60;;;1.67;;
24153;SDS011;12312;53.362;-1.518;2024-03-23T06:02:10;6.50;;;1.35;;
24153;SDS011;12312;53.362;-1.518;2024-03-23T06:04:55;6.63;;;1.30;;
24153;SDS011;12312;53.362;-1.518;2024-03-23T06:07:39;18.20;;;1.75;;
24153;SDS011;12312;53.362;-1.518;2024-03-23T06:10:23;6.20;;;1.45;;
24153;SDS011;12312;53.362;-1.518;2024-03-23T06:13:07;10.38;;;2.50;;
24153;SDS011;12312;53.362;-1.518;2024-03-23T06:15:52;13.27;;;1.52;;
24153;SDS011;12312;53.362;-1.518;2024-03-23T06:18:36;7.80;;;1.33;;
24153;SDS011;12312;53.362;-1.518;2024-03-23T06:21:20;12.50;;;1.67;;
24153;SDS011;12312;53.362;-1.518;2024-03-23T06:24:04;8.23;;;1.63;;
24153;SDS011;12312;53.362;-1.518;2024-03-23T06:26:48;7.15;;;1.75;;
24153;SDS011;12312;53.362;-1.518;2024-03-23T06:29:32;6.57;;;2.00;;
24153;SDS011;12312;53.362;-1.518;2024-03-23T06:32:16;5.47;;;1.67;;
24153;SDS011;12312;53.362;-1.518;2024-03-23T06:35:00;12.23;;;2.08;;
24153;SDS011;12312;53.362;-1.518;2024-03-23T06:37:44;8.23;;;1.88;;
24153;SDS011;12312;53.362;-1.518;2024-03-23T06:40:32;14.07;;;2.05;;
24153;SDS011;12312;53.362;-1.518;2024-03-23T06:43:16;5.90;;;1.50;;
24153;SDS011;12312;53.362;-1.518;2024-03-23T06:46:00;3.55;;;1.38;;
24153;SDS011;12312;53.362;-1.518;2024-03-23T06:48:47;2.80;;;1.15;;
24153;SDS011;12312;53.362;-1.518;2024-03-23T06:51:31;6.05;;;1.40;;
24153;SDS011;12312;53.362;-1.518;2024-03-23T06:54:19;3.83;;;1.90;;
24153;SDS011;12312;53.362;-1.518;2024-03-23T06:57:03;6.40;;;1.92;;
24153;SDS011;12312;53.362;-1.518;2024-03-23T06:59:47;8.60;;;1.40;;
24153;SDS011;12312;53.362;-1.518;2024-03-23T07:02:31;9.02;;;1.73;;
24153;SDS011;12312;53.362;-1.518;2024-03-23T07:05:15;8.75;;;2.67;;
24153;SDS011;12312;53.362;-1.518;2024-03-23T07:07:59;10.13;;;3.55;;
24153;SDS011;12312;53.362;-1.518;2024-03-23T07:10:43;7.35;;;3.20;;
24153;SDS011;12312;53.362;-1.518;2024-03-23T07:13:27;5.05;;;2.75;;
24153;SDS011;12312;53.362;-1.518;2024-03-23T07:16:11;5.88;;;1.63;;
24153;SDS011;12312;53.362;-1.518;2024-03-23T07:18:55;6.35;;;1.20;;
24153;SDS011;12312;53.362;-1.518;2024-03-23T07:21:39;6.10;;;1.15;;
24153;SDS011;12312;53.362;-1.518;2024-03-23T07:24:23;4.80;;;0.98;;
24153;SDS011;12312;53.362;-1.518;2024-03-23T07:27:07;6.93;;;1.73;;
24153;SDS011;12312;53.362;-1.518;2024-03-23T07:29:53;7.50;;;1.25;;
24153;SDS011;12312;53.362;-1.518;2024-03-23T07:32:38;6.05;;;1.90;;
24153;SDS011;12312;53.362;-1.518;2024-03-23T07:35:22;11.77;;;1.80;;
24153;SDS011;12312;53.362;-1.518;2024-03-23T07:38:06;9.93;;;1.60;;
24153;SDS011;12312;53.362;-1.518;2024-03-23T07:40:50;8.90;;;1.98;;
24153;SDS011;12312;53.362;-1.518;2024-03-23T07:43:38;4.07;;;1.63;;
24153;SDS011;12312;53.362;-1.518;2024-03-23T07:46:22;5.85;;;1.48;;
24153;SDS011;12312;53.362;-1.518;2024-03-23T07:49:06;5.25;;;1.48;;
24153;SDS011;12312;53.362;-1.518;2024-03-23T07:51:50;3.30;;;1.60;;
24153;SDS011;12312;53.362;-1.518;2024-03-23T07:54:34;5.95;;;1.90;;
24153;SDS011;12312;53.362;-1.518;2024-03-23T07:57:18;11.70;;;2.10;;
24153;SDS011;12312;53.362;-1.518;2024-03-23T08:00:02;6.65;;;1.38;;
24153;SDS011;12312;53.362;-1.518;2024-03-23T08:02:46;7.22;;;1.42;;
24153;SDS011;12312;53.362;-1.518;2024-03-23T08:05:30;10.10;;;2.40;;
24153;SDS011;12312;53.362;-1.518;2024-03-23T08:08:14;4.30;;;1.50;;
24153;SDS011;12312;53.362;-1.518;2024-03-23T08:11:01;6.93;;;1.55;;
24153;SDS011;12312;53.362;-1.518;2024-03-23T08:13:46;6.10;;;1.55;;
24153;SDS011;12312;53.362;-1.518;2024-03-23T08:16:30;3.55;;;1.30;;
24153;SDS011;12312;53.362;-1.518;2024-03-23T08:19:14;9.70;;;1.73;;
24153;SDS011;12312;53.362;-1.518;2024-03-23T08:21:58;5.38;;;1.40;;
24153;SDS011;12312;53.362;-1.518;2024-03-23T08:24:45;7.68;;;1.98;;
24153;SDS011;12312;53.362;-1.518;2024-03-23T08:27:30;9.35;;;1.88;;
24153;SDS011;12312;53.362;-1.518;2024-03-23T08:30:14;6.68;;;1.63;;
24153;SDS011;12312;53.362;-1.518;2024-03-23T08:32:58;9.57;;;1.60;;
24153;SDS011;12312;53.362;-1.518;2024-03-23T08:35:52;8.20;;;1.63;;
24153;SDS011;12312;53.362;-1.518;2024-03-23T08:38:37;7.82;;;1.65;;
24153;SDS011;12312;53.362;-1.518;2024-03-23T08:41:20;8.70;;;1.90;;
24153;SDS011;12312;53.362;-1.518;2024-03-23T08:44:05;11.02;;;2.00;;
24153;SDS011;12312;53.362;-1.518;2024-03-23T08:46:48;8.05;;;1.90;;
24153;SDS011;12312;53.362;-1.518;2024-03-23T08:49:33;11.90;;;1.90;;
24153;SDS011;12312;53.362;-1.518;2024-03-23T08:52:16;10.43;;;1.92;;
24153;SDS011;12312;53.362;-1.518;2024-03-23T08:55:00;9.13;;;1.63;;
24153;SDS011;12312;53.362;-1.518;2024-03-23T08:57:44;7.97;;;2.80;;
24153;SDS011;12312;53.362;-1.518;2024-03-23T09:00:29;8.10;;;1.30;;
24153;SDS011;12312;53.362;-1.518;2024-03-23T09:03:12;6.18;;;1.23;;
24153;SDS011;12312;53.362;-1.518;2024-03-23T09:05:56;4.10;;;1.77;;
24153;SDS011;12312;53.362;-1.518;2024-03-23T09:08:41;8.07;;;1.60;;
24153;SDS011;12312;53.362;-1.518;2024-03-23T09:11:25;9.93;;;1.20;;
24153;SDS011;12312;53.362;-1.518;2024-03-23T09:14:09;7.57;;;1.40;;
24153;SDS011;12312;53.362;-1.518;2024-03-23T09:16:53;4.57;;;1.50;;
24153;SDS011;12312;53.362;-1.518;2024-03-23T09:19:38;6.93;;;1.10;;
24153;SDS011;12312;53.362;-1.518;2024-03-23T09:22:22;10.82;;;1.63;;
24153;SDS011;12312;53.362;-1.518;2024-03-23T09:25:06;3.33;;;1.17;;
24153;SDS011;12312;53.362;-1.518;2024-03-23T09:27:50;10.60;;;1.70;;
24153;SDS011;12312;53.362;-1.518;2024-03-23T09:30:35;5.30;;;1.08;;
24153;SDS011;12312;53.362;-1.518;2024-03-23T09:33:19;9.43;;;1.23;;
24153;SDS011;12312;53.362;-1.518;2024-03-23T09:36:03;9.43;;;1.40;;
24153;SDS011;12312;53.362;-1.518;2024-03-23T09:38:47;11.07;;;1.50;;
24153;SDS011;12312;53.362;-1.518;2024-03-23T09:41:31;8.75;;;1.75;;
24153;SDS011;12312;53.362;-1.518;2024-03-23T09:44:15;13.70;;;1.65;;
24153;SDS011;12312;53.362;-1.518;2024-03-23T09:47:02;6.47;;;1.48;;
24153;SDS011;12312;53.362;-1.518;2024-03-23T09:49:46;6.65;;;1.40;;
24153;SDS011;12312;53.362;-1.518;2024-03-23T09:52:30;4.75;;;1.27;;
24153;SDS011;12312;53.362;-1.518;2024-03-23T09:55:15;6.20;;;1.40;;
24153;SDS011;12312;53.362;-1.518;2024-03-23T09:57:59;8.65;;;1.33;;
24153;SDS011;12312;53.362;-1.518;2024-03-23T10:00:46;7.93;;;1.58;;
24153;SDS011;12312;53.362;-1.518;2024-03-23T10:03:30;7.53;;;1.52;;
24153;SDS011;12312;53.362;-1.518;2024-03-23T10:06:14;6.18;;;1.33;;
24153;SDS011;12312;53.362;-1.518;2024-03-23T10:08:58;8.75;;;1.40;;
24153;SDS011;12312;53.362;-1.518;2024-03-23T10:11:42;4.40;;;1.65;;
24153;SDS011;12312;53.362;-1.518;2024-03-23T10:14:31;3.30;;;0.95;;
24153;SDS011;12312;53.362;-1.518;2024-03-23T10:20:00;2.95;;;1.00;;
24153;SDS011;12312;53.362;-1.518;2024-03-23T10:22:45;4.55;;;1.25;;
24153;SDS011;12312;53.362;-1.518;2024-03-23T10:25:29;4.82;;;0.90;;
24153;SDS011;12312;53.362;-1.518;2024-03-23T10:28:13;2.33;;;1.00;;
24153;SDS011;12312;53.362;-1.518;2024-03-23T10:30:58;8.05;;;1.58;;
24153;SDS011;12312;53.362;-1.518;2024-03-23T10:33:51;10.05;;;1.38;;
24153;SDS011;12312;53.362;-1.518;2024-03-23T10:36:38;5.97;;;1.35;;
24153;SDS011;12312;53.362;-1.518;2024-03-23T10:39:25;8.50;;;1.30;;
24153;SDS011;12312;53.362;-1.518;2024-03-23T10:42:09;7.95;;;1.10;;
24153;SDS011;12312;53.362;-1.518;2024-03-23T10:44:59;8.40;;;1.63;;
24153;SDS011;12312;53.362;-1.518;2024-03-23T10:47:44;9.38;;;1.40;;
24153;SDS011;12312;53.362;-1.518;2024-03-23T10:50:31;5.72;;;1.38;;
24153;SDS011;12312;53.362;-1.518;2024-03-23T10:53:16;8.48;;;2.03;;
24153;SDS011;12312;53.362;-1.518;2024-03-23T10:56:01;8.00;;;1.73;;
24153;SDS011;12312;53.362;-1.518;2024-03-23T10:58:48;9.20;;;1.60;;
24153;SDS011;12312;53.362;-1.518;2024-03-23T11:01:33;7.80;;;1.05;;
24153;SDS011;12312;53.362;-1.518;2024-03-23T11:04:29;7.07;;;1.50;;
24153;SDS011;12312;53.362;-1.518;2024-03-23T11:09:59;8.43;;;1.10;;
24153;SDS011;12312;53.362;-1.518;2024-03-23T11:12:45;7.70;;;1.33;;
24153;SDS011;12312;53.362;-1.518;2024-03-23T11:15:33;10.00;;;1.88;;
24153;SDS011;12312;53.362;-1.518;2024-03-23T11:18:21;7.15;;;1.40;;
24153;SDS011;12312;53.362;-1.518;2024-03-23T11:21:09;4.50;;;1.40;;
24153;SDS011;12312;53.362;-1.518;2024-03-23T11:23:53;6.05;;;1.35;;
24153;SDS011;12312;53.362;-1.518;2024-03-23T11:26:38;2.22;;;0.93;;
24153;SDS011;12312;53.362;-1.518;2024-03-23T11:29:22;8.02;;;1.58;;
24153;SDS011;12312;53.362;-1.518;2024-03-23T11:32:07;6.82;;;1.27;;
24153;SDS011;12312;53.362;-1.518;2024-03-23T11:34:53;3.90;;;0.85;;
24153;SDS011;12312;53.362;-1.518;2024-03-23T11:37:37;5.85;;;1.38;;
24153;SDS011;12312;53.362;-1.518;2024-03-23T11:40:21;8.95;;;1.95;;
24153;SDS011;12312;53.362;-1.518;2024-03-23T11:43:05;5.43;;;1.33;;
24153;SDS011;12312;53.362;-1.518;2024-03-23T11:45:51;6.43;;;1.50;;
24153;SDS011;12312;53.362;-1.518;2024-03-23T11:51:20;7.50;;;1.38;;
24153;SDS011;12312;53.362;-1.518;2024-03-23T11:54:08;4.30;;;1.60;;
24153;SDS011;12312;53.362;-1.518;2024-03-23T11:59:40;5.45;;;1.50;;
24153;SDS011;12312;53.362;-1.518;2024-03-23T12:02:24;4.50;;;1.25;;
24153;SDS011;12312;53.362;-1.518;2024-03-23T12:05:15;4.00;;;1.42;;
24153;SDS011;12312;53.362;-1.518;2024-03-23T12:11:19;2.42;;;1.02;;
24153;SDS011;12312;53.362;-1.518;2024-03-23T12:14:03;6.10;;;1.48;;
24153;SDS011;12312;53.362;-1.518;2024-03-23T12:16:47;4.50;;;1.45;;
24153;SDS011;12312;53.362;-1.518;2024-03-23T12:19:31;2.92;;;1.30;;
24153;SDS011;12312;53.362;-1.518;2024-03-23T12:22:15;2.03;;;0.95;;
24153;SDS011;12312;53.362;-1.518;2024-03-23T12:25:04;1.13;;;0.68;;
24153;SDS011;12312;53.362;-1.518;2024-03-23T12:27:48;2.22;;;1.15;;
24153;SDS011;12312;53.362;-1.518;2024-03-23T12:30:36;1.80;;;0.70;;
24153;SDS011;12312;53.362;-1.518;2024-03-23T12:33:21;5.13;;;1.05;;
24153;SDS011;12312;53.362;-1.518;2024-03-23T12:36:05;4.13;;;1.20;;
24153;SDS011;12312;53.362;-1.518;2024-03-23T12:38:49;4.38;;;1.00;;
24153;SDS011;12312;53.362;-1.518;2024-03-23T12:41:32;6.60;;;1.33;;
24153;SDS011;12312;53.362;-1.518;2024-03-23T12:44:16;9.18;;;1.02;;
24153;SDS011;12312;53.362;-1.518;2024-03-23T12:47:00;1.58;;;0.63;;
24153;SDS011;12312;53.362;-1.518;2024-03-23T12:49:44;2.05;;;0.93;;
24153;SDS011;12312;53.362;-1.518;2024-03-23T12:52:30;7.15;;;1.30;;
24153;SDS011;12312;53.362;-1.518;2024-03-23T12:55:14;4.10;;;0.98;;
24153;SDS011;12312;53.362;-1.518;2024-03-23T12:57:58;5.18;;;1.33;;
24153;SDS011;12312;53.362;-1.518;2024-03-23T13:00:42;6.10;;;1.27;;
24153;SDS011;12312;53.362;-1.518;2024-03-23T13:03:26;7.50;;;1.13;;
24153;SDS011;12312;53.362;-1.518;2024-03-23T13:06:10;3.53;;;1.23;;
24153;SDS011;12312;53.362;-1.518;2024-03-23T13:08:54;6.78;;;1.27;;
24153;SDS011;12312;53.362;-1.518;2024-03-23T13:11:38;3.47;;;1.10;;
24153;SDS011;12312;53.362;-1.518;2024-03-23T13:14:22;4.72;;;1.05;;
24153;SDS011;12312;53.362;-1.518;2024-03-23T13:17:07;2.30;;;0.77;;
24153;SDS011;12312;53.362;-1.518;2024-03-23T13:19:51;6.57;;;1.33;;
24153;SDS011;12312;53.362;-1.518;2024-03-23T13:22:35;5.75;;;1.33;;
24153;SDS011;12312;53.362;-1.518;2024-03-23T13:25:19;2.97;;;1.05;;
24153;SDS011;12312;53.362;-1.518;2024-03-23T13:28:04;5.68;;;1.30;;
24153;SDS011;12312;53.362;-1.518;2024-03-23T13:33:35;4.20;;;1.45;;
24153;SDS011;12312;53.362;-1.518;2024-03-23T13:36:19;9.23;;;1.08;;
24153;SDS011;12312;53.362;-1.518;2024-03-23T13:39:03;4.40;;;1.25;;
24153;SDS011;12312;53.362;-1.518;2024-03-23T13:41:54;5.03;;;1.13;;
24153;SDS011;12312;53.362;-1.518;2024-03-23T13:44:39;7.00;;;1.15;;
24153;SDS011;12312;53.362;-1.518;2024-03-23T13:47:23;7.38;;;1.33;;
24153;SDS011;12312;53.362;-1.518;2024-03-23T13:50:07;5.28;;;1.20;;
24153;SDS011;12312;53.362;-1.518;2024-03-23T13:52:51;3.28;;;1.45;;
24153;SDS011;12312;53.362;-1.518;2024-03-23T13:55:35;5.30;;;1.10;;
24153;SDS011;12312;53.362;-1.518;2024-03-23T13:58:20;3.33;;;1.30;;
24153;SDS011;12312;53.362;-1.518;2024-03-23T14:01:03;3.83;;;0.95;;
24153;SDS011;12312;53.362;-1.518;2024-03-23T14:03:47;2.38;;;1.02;;
24153;SDS011;12312;53.362;-1.518;2024-03-23T14:06:31;8.27;;;1.50;;
24153;SDS011;12312;53.362;-1.518;2024-03-23T14:09:15;8.63;;;1.20;;
24153;SDS011;12312;53.362;-1.518;2024-03-23T14:12:06;9.25;;;1.25;;
24153;SDS011;12312;53.362;-1.518;2024-03-23T14:14:52;6.07;;;1.33;;
24153;SDS011;12312;53.362;-1.518;2024-03-23T14:17:37;10.67;;;1.90;;
24153;SDS011;12312;53.362;-1.518;2024-03-23T14:20:22;11.30;;;1.42;;
24153;SDS011;12312;53.362;-1.518;2024-03-23T14:23:07;7.70;;;1.20;;
24153;SDS011;12312;53.362;-1.518;2024-03-23T14:25:52;4.43;;;1.30;;
24153;SDS011;12312;53.362;-1.518;2024-03-23T14:28:36;8.20;;;1.85;;
24153;SDS011;12312;53.362;-1.518;2024-03-23T14:31:20;8.13;;;1.38;;
24153;SDS011;12312;53.362;-1.518;2024-03-23T14:34:04;6.45;;;1.30;;
24153;SDS011;12312;53.362;-1.518;2024-03-23T14:36:48;4.55;;;0.98;;
24153;SDS011;12312;53.362;-1.518;2024-03-23T14:39:32;4.78;;;1.20;;
24153;SDS011;12312;53.362;-1.518;2024-03-23T14:45:02;2.50;;;1.17;;
24153;SDS011;12312;53.362;-1.518;2024-03-23T14:47:46;3.63;;;1.25;;
24153;SDS011;12312;53.362;-1.518;2024-03-23T14:50:30;4.15;;;1.48;;
24153;SDS011;12312;53.362;-1.518;2024-03-23T14:53:14;10.13;;;1.40;;
24153;SDS011;12312;53.362;-1.518;2024-03-23T14:55:59;9.38;;;1.65;;
24153;SDS011;12312;53.362;-1.518;2024-03-23T14:58:43;4.75;;;1.50;;
24153;SDS011;12312;53.362;-1.518;2024-03-23T15:01:29;7.72;;;1.63;;
24153;SDS011;12312;53.362;-1.518;2024-03-23T15:04:13;5.57;;;1.20;;
24153;SDS011;12312;53.362;-1.518;2024-03-23T15:06:57;7.00;;;1.42;;
24153;SDS011;12312;53.362;-1.518;2024-03-23T15:09:41;5.35;;;1.10;;
24153;SDS011;12312;53.362;-1.518;2024-03-23T15:12:25;8.35;;;1.80;;
24153;SDS011;12312;53.362;-1.518;2024-03-23T15:15:09;4.97;;;1.17;;
24153;SDS011;12312;53.362;-1.518;2024-03-23T15:17:54;4.28;;;1.17;;
24153;SDS011;12312;53.362;-1.518;2024-03-23T15:20:38;8.77;;;1.63;;
24153;SDS011;12312;53.362;-1.518;2024-03-23T15:23:23;12.63;;;1.63;;
24153;SDS011;12312;53.362;-1.518;2024-03-23T15:26:07;5.95;;;1.10;;
24153;SDS011;12312;53.362;-1.518;2024-03-23T15:28:51;8.57;;;1.80;;
24153;SDS011;12312;53.362;-1.518;2024-03-23T15:31:41;12.35;;;1.95;;
24153;SDS011;12312;53.362;-1.518;2024-03-23T15:34:26;9.82;;;2.40;;
24153;SDS011;12312;53.362;-1.518;2024-03-23T15:37:10;15.52;;;1.92;;
24153;SDS011;12312;53.362;-1.518;2024-03-23T15:39:54;6.68;;;2.22;;
24153;SDS011;12312;53.362;-1.518;2024-03-23T15:42:38;10.68;;;1.35;;
24153;SDS011;12312;53.362;-1.518;2024-03-23T15:45:22;9.50;;;2.20;;
24153;SDS011;12312;53.362;-1.518;2024-03-23T15:48:06;4.78;;;1.70;;
24153;SDS011;12312;53.362;-1.518;2024-03-23T15:50:51;10.07;;;1.35;;
24153;SDS011;12312;53.362;-1.518;2024-03-23T15:53:35;17.17;;;3.30;;
24153;SDS011;12312;53.362;-1.518;2024-03-23T15:56:20;6.63;;;1.83;;
24153;SDS011;12312;53.362;-1.518;2024-03-23T15:59:04;6.82;;;1.58;;
24153;SDS011;12312;53.362;-1.518;2024-03-23T16:01:51;16.45;;;2.17;;
24153;SDS011;12312;53.362;-1.518;2024-03-23T16:04:35;7.18;;;1.45;;
24153;SDS011;12312;53.362;-1.518;2024-03-23T16:07:19;9.88;;;1.70;;
24153;SDS011;12312;53.362;-1.518;2024-03-23T16:10:03;11.43;;;2.42;;
24153;SDS011;12312;53.362;-1.518;2024-03-23T16:12:51;7.07;;;2.55;;
24153;SDS011;12312;53.362;-1.518;2024-03-23T16:15:35;7.10;;;1.92;;
24153;SDS011;12312;53.362;-1.518;2024-03-23T16:18:19;7.30;;;1.58;;
24153;SDS011;12312;53.362;-1.518;2024-03-23T16:21:03;10.50;;;1.60;;
24153;SDS011;12312;53.362;-1.518;2024-03-23T16:23:48;8.73;;;1.70;;
24153;SDS011;12312;53.362;-1.518;2024-03-23T16:26:32;5.88;;;1.52;;
24153;SDS011;12312;53.362;-1.518;2024-03-23T16:29:16;5.68;;;1.65;;
24153;SDS011;12312;53.362;-1.518;2024-03-23T16:32:00;7.88;;;2.33;;
24153;SDS011;12312;53.362;-1.518;2024-03-23T16:34:44;9.77;;;2.25;;
24153;SDS011;12312;53.362;-1.518;2024-03-23T16:37:28;10.10;;;2.40;;
24153;SDS011;12312;53.362;-1.518;2024-03-23T16:40:12;15.43;;;2.22;;
24153;SDS011;12312;53.362;-1.518;2024-03-23T16:42:56;11.68;;;3.50;;
24153;SDS011;12312;53.362;-1.518;2024-03-23T16:45:40;12.27;;;2.40;;
24153;SDS011;12312;53.362;-1.518;2024-03-23T16:48:24;10.73;;;2.83;;
24153;SDS011;12312;53.362;-1.518;2024-03-23T16:51:09;5.60;;;2.35;;
24153;SDS011;12312;53.362;-1.518;2024-03-23T16:53:53;8.07;;;2.93;;
24153;SDS011;12312;53.362;-1.518;2024-03-23T16:56:39;5.90;;;2.50;;
24153;SDS011;12312;53.362;-1.518;2024-03-23T16:59:23;9.85;;;2.47;;
24153;SDS011;12312;53.362;-1.518;2024-03-23T17:02:07;6.15;;;1.63;;
24153;SDS011;12312;53.362;-1.518;2024-03-23T17:04:52;8.85;;;3.45;;
24153;SDS011;12312;53.362;-1.518;2024-03-23T17:07:36;8.30;;;3.25;;
24153;SDS011;12312;53.362;-1.518;2024-03-23T17:10:20;12.30;;;3.67;;
24153;SDS011;12312;53.362;-1.518;2024-03-23T17:13:04;9.43;;;2.67;;
24153;SDS011;12312;53.362;-1.518;2024-03-23T17:15:48;14.13;;;3.53;;
24153;SDS011;12312;53.362;-1.518;2024-03-23T17:18:32;12.25;;;3.75;;
24153;SDS011;12312;53.362;-1.518;2024-03-23T17:21:16;13.02;;;3.45;;
24153;SDS011;12312;53.362;-1.518;2024-03-23T17:24:00;9.00;;;2.97;;
24153;SDS011;12312;53.362;-1.518;2024-03-23T17:26:44;10.05;;;3.35;;